Lanchester, United Kingdom
Current Conditions -  °F | °C
As of 7:20 AM on Saturday 25 Oct 2014 (Local Time) from EGNT Reporting Station
Few Clouds Few Clouds  
Wind Chill: 10°   Ceiling: Unl
Heat Index: 10°   Visibility: 6mi
Dew Point:   Wind: 13mph
Humidity: 76%   Direction: 230°SW
Pressure: 29.77"   Gusts: NA
Location:  54.82°N, 1.74°W
Report Text: EGNT 250620Z 23011KT 200V270 9999 FEW047 10/06 Q1008
Loading
Personal Weather Stations






























Interactive Weather Map
Tropical Storm Tracking
New forecast layout! Learn more

10-Day Weather Forecast

Advertisements
Track Severe Weather on mobile